Time;durP1;ratioP1;P1;durP2;ratioP2;P2;SDS_P1;SDS_P2;PMS_P1;PMS_P2;Temp;Humidity;BMP_temperature;BMP_pressure;BME280_temperature;BME280_humidity;BME280_pressure;Samples;Min_cycle;Max_cycle;Signal;HPM_P1;HPM_P2
2024/02/12 00:02:18;;;;;;;5.00;4.60;;;11.50;99.90;;;;;;4994814;28;20427;-67
2024/02/12 00:04:45;;;;;;;5.23;4.83;;;11.50;99.90;;;;;;4993795;28;20414;-64
2024/02/12 00:07:13;;;;;;;5.43;5.03;;;11.50;99.90;;;;;;4995054;28;20410;-67
2024/02/12 00:09:39;;;;;;;5.17;4.77;;;11.50;99.90;;;;;;4976203;28;20526;-65
2024/02/12 00:12:06;;;;;;;4.80;4.50;;;11.60;99.90;;;;;;4995035;28;20449;-67
2024/02/12 00:14:32;;;;;;;5.23;4.90;;;11.60;99.90;;;;;;4994598;28;20419;-67
2024/02/12 00:16:57;;;;;;;5.00;4.60;;;11.70;99.90;;;;;;4993727;28;20466;-65
2024/02/12 00:19:23;;;;;;;5.30;4.90;;;11.70;99.90;;;;;;4994187;28;20522;-65
2024/02/12 00:21:49;;;;;;;4.87;4.57;;;11.70;99.90;;;;;;4992596;28;20184;-66
2024/02/12 00:24:16;;;;;;;5.47;5.07;;;11.70;99.90;;;;;;4992859;28;20581;-66
2024/02/12 00:26:42;;;;;;;5.63;5.23;;;11.70;99.90;;;;;;4993440;28;20532;-65
2024/02/12 00:29:08;;;;;;;5.27;4.77;;;11.80;99.90;;;;;;4994234;28;20422;-66
2024/02/12 00:31:38;;;;;;;5.33;4.90;;;11.80;99.90;;;;;;4993955;28;20709;-66
2024/02/12 00:34:04;;;;;;;5.33;4.70;;;11.80;99.90;;;;;;4992940;28;20433;-66
2024/02/12 00:36:29;;;;;;;5.30;4.90;;;11.80;99.90;;;;;;4994010;28;20502;-66
2024/02/12 00:38:55;;;;;;;4.57;4.23;;;11.80;99.90;;;;;;4993271;28;20192;-66
2024/02/12 00:41:22;;;;;;;4.80;4.40;;;11.80;99.90;;;;;;4994600;28;20668;-65
2024/02/12 00:43:47;;;;;;;4.73;4.37;;;11.80;99.90;;;;;;4993098;28;20199;-65
2024/02/12 00:46:17;;;;;;;5.43;5.00;;;11.80;99.90;;;;;;4994172;28;20411;-65
2024/02/12 00:48:45;;;;;;;5.30;4.97;;;11.80;99.90;;;;;;4992904;28;20174;-65
2024/02/12 00:51:12;;;;;;;6.80;5.10;;;11.80;99.90;;;;;;4991791;28;20477;-66
2024/02/12 00:53:42;;;;;;;5.30;4.80;;;11.80;99.90;;;;;;4993430;28;20824;-66
2024/02/12 00:56:08;;;;;;;6.20;5.70;;;11.80;99.90;;;;;;4993543;28;20743;-66
2024/02/12 00:58:34;;;;;;;5.80;5.30;;;11.80;99.90;;;;;;4994232;28;20478;-66
2024/02/12 01:01:02;;;;;;;7.10;5.97;;;11.90;99.90;;;;;;4993316;28;20258;-66
2024/02/12 01:03:28;;;;;;;6.20;5.67;;;11.90;99.90;;;;;;4993432;28;20396;-65
2024/02/12 01:05:54;;;;;;;6.97;6.27;;;11.90;99.90;;;;;;4993068;28;20422;-66
2024/02/12 01:08:20;;;;;;;7.30;6.20;;;11.90;99.90;;;;;;4994035;28;20860;-66
2024/02/12 01:10:46;;;;;;;6.53;5.97;;;11.90;99.90;;;;;;4992870;28;20608;-66
2024/02/12 01:13:13;;;;;;;6.50;6.00;;;11.90;99.90;;;;;;4993664;28;20479;-66
2024/02/12 01:15:40;;;;;;;6.83;6.20;;;11.90;99.90;;;;;;4993305;28;20423;-66
2024/02/12 01:18:07;;;;;;;6.90;6.30;;;12.00;99.90;;;;;;4991635;28;20497;-66
2024/02/12 01:20:34;;;;;;;7.87;7.10;;;12.00;99.90;;;;;;4973979;28;20976;-66
2024/02/12 01:23:00;;;;;;;8.30;7.50;;;12.00;99.90;;;;;;4987257;28;20415;-66
2024/02/12 01:25:25;;;;;;;9.87;8.90;;;12.00;99.90;;;;;;4993366;28;20421;-66
2024/02/12 01:27:52;;;;;;;12.93;10.00;;;12.00;99.90;;;;;;4992337;28;20253;-66
2024/02/12 01:30:18;;;;;;;10.90;9.70;;;12.00;99.90;;;;;;4992629;28;20211;-66
2024/02/12 01:32:44;;;;;;;11.97;10.20;;;12.00;99.90;;;;;;4975498;28;20926;-66
2024/02/12 01:35:11;;;;;;;9.70;8.80;;;12.00;99.90;;;;;;4992671;28;20263;-66
2024/02/12 01:37:36;;;;;;;10.63;9.60;;;12.00;99.90;;;;;;4992945;28;20182;-66
2024/02/12 01:40:02;;;;;;;10.67;9.57;;;12.00;99.90;;;;;;4992578;28;20466;-66
2024/02/12 01:42:28;;;;;;;11.90;9.70;;;12.00;99.90;;;;;;4993113;28;20246;-66
2024/02/12 01:45:11;;;;;;;11.10;9.93;;;12.00;99.90;;;;;;4991990;28;20790;-66
2024/02/12 01:47:46;;;;;;;11.83;10.07;;;12.00;99.90;;;;;;4993157;28;20174;-66
2024/02/12 01:50:13;;;;;;;14.20;11.00;;;12.00;99.90;;;;;;4974743;28;20757;-66
2024/02/12 01:52:52;;;;;;;11.90;10.70;;;12.00;99.90;;;;;;4993241;28;20460;-66
2024/02/12 01:55:23;;;;;;;11.57;10.30;;;12.00;99.90;;;;;;4975426;28;20415;-66
2024/02/12 01:57:52;;;;;;;12.83;10.53;;;12.00;99.90;;;;;;4991441;28;20426;-66
2024/02/12 02:00:21;;;;;;;14.33;11.60;;;12.10;99.90;;;;;;4993156;28;20402;-67
2024/02/12 02:02:47;;;;;;;14.47;11.63;;;12.10;99.90;;;;;;4992356;28;20421;-66
2024/02/12 02:05:13;;;;;;;15.00;13.40;;;12.10;99.90;;;;;;4970028;28;20439;-66
2024/02/12 02:07:39;;;;;;;14.80;12.73;;;12.00;99.90;;;;;;4983602;28;20419;-66
2024/02/12 02:10:09;;;;;;;15.63;13.43;;;12.00;99.90;;;;;;4992487;28;20630;-66
2024/02/12 02:12:38;;;;;;;16.33;12.83;;;12.10;99.90;;;;;;4992748;28;20487;-66
2024/02/12 02:15:05;;;;;;;15.60;13.23;;;12.00;99.90;;;;;;4991898;28;20425;-66
2024/02/12 02:17:32;;;;;;;16.07;12.70;;;12.00;99.90;;;;;;4992461;28;20457;-66
2024/02/12 02:19:59;;;;;;;19.80;14.57;;;12.00;99.90;;;;;;4992221;28;20425;-66
2024/02/12 02:22:26;;;;;;;17.90;14.60;;;12.00;99.90;;;;;;4992493;28;20506;-66
2024/02/12 02:24:51;;;;;;;16.17;12.80;;;11.90;99.90;;;;;;4991982;28;21030;-66
2024/02/12 02:27:17;;;;;;;17.00;13.77;;;11.90;99.90;;;;;;4991949;28;20506;-66
2024/02/12 02:29:43;;;;;;;18.77;14.60;;;11.90;99.90;;;;;;4992152;28;20181;-66
2024/02/12 02:32:09;;;;;;;18.13;14.00;;;11.90;99.90;;;;;;4991749;28;20288;-66
2024/02/12 02:34:34;;;;;;;17.43;13.20;;;11.90;99.90;;;;;;4992533;28;20268;-66
2024/02/12 02:37:00;;;;;;;16.27;13.83;;;11.90;99.90;;;;;;4990962;28;20411;-66
2024/02/12 02:39:26;;;;;;;16.13;13.50;;;11.90;99.90;;;;;;4992342;28;20180;-66
2024/02/12 02:41:52;;;;;;;15.83;12.83;;;11.90;99.90;;;;;;4991312;28;20972;-66
2024/02/12 02:44:18;;;;;;;19.33;14.73;;;11.90;99.90;;;;;;4991897;28;20601;-66
2024/02/12 02:46:46;;;;;;;17.93;13.47;;;12.00;99.90;;;;;;4992629;28;20185;-66
2024/02/12 02:49:14;;;;;;;19.70;14.90;;;12.00;99.90;;;;;;4992353;28;20172;-66
2024/02/12 02:51:43;;;;;;;19.57;15.10;;;12.00;99.90;;;;;;4992472;28;20426;-66
2024/02/12 02:54:09;;;;;;;19.57;14.27;;;12.00;99.90;;;;;;4991105;28;20912;-66
2024/02/12 02:56:35;;;;;;;20.93;15.40;;;12.00;99.90;;;;;;4992482;28;20433;-66
2024/02/12 02:59:01;;;;;;;17.33;15.20;;;12.00;99.90;;;;;;4995181;28;20892;-66
2024/02/12 03:01:30;;;;;;;20.67;15.10;;;12.00;99.90;;;;;;4978473;28;20644;-66
2024/02/12 03:03:56;;;;;;;18.90;14.70;;;11.90;99.90;;;;;;4995193;28;20192;-66
2024/02/12 03:06:23;;;;;;;19.43;15.53;;;11.90;99.90;;;;;;4995738;28;20785;-67
2024/02/12 03:08:50;;;;;;;22.00;16.03;;;11.80;99.90;;;;;;4994930;28;20421;-66
2024/02/12 03:11:19;;;;;;;18.63;14.53;;;11.90;99.90;;;;;;4995451;28;20427;-66
2024/02/12 03:13:45;;;;;;;19.10;15.00;;;11.80;99.90;;;;;;4995604;28;20461;-66
2024/02/12 03:16:15;;;;;;;21.27;15.97;;;11.90;99.90;;;;;;4994530;28;21525;-66
2024/02/12 03:18:41;;;;;;;23.63;15.70;;;11.90;99.90;;;;;;4995532;28;20463;-66
2024/02/12 03:21:09;;;;;;;22.10;16.80;;;11.90;99.90;;;;;;4994471;28;20422;-66
2024/02/12 03:23:35;;;;;;;25.63;18.67;;;11.90;99.90;;;;;;4994888;28;20772;-66
2024/02/12 03:26:02;;;;;;;23.23;17.20;;;11.80;99.90;;;;;;4993835;28;20454;-66
2024/02/12 03:28:28;;;;;;;25.37;18.10;;;11.80;99.90;;;;;;4988276;28;20767;-66
2024/02/12 03:30:54;;;;;;;21.57;17.33;;;11.80;99.90;;;;;;4994276;28;20427;-66
2024/02/12 03:33:20;;;;;;;18.27;15.40;;;11.80;99.90;;;;;;4995390;28;20454;-66
2024/02/12 03:35:46;;;;;;;24.03;17.80;;;11.80;99.90;;;;;;4994891;28;20628;-66
2024/02/12 03:38:11;;;;;;;23.23;18.30;;;11.90;99.90;;;;;;4993764;28;20481;-66
2024/02/12 03:40:37;;;;;;;26.93;17.90;;;11.90;99.90;;;;;;4977656;28;20176;-66
2024/02/12 03:43:04;;;;;;;26.33;19.43;;;12.00;99.90;;;;;;4994349;28;20176;-66
2024/02/12 03:45:30;;;;;;;24.43;19.20;;;12.00;99.90;;;;;;4994694;28;20207;-66
2024/02/12 03:48:00;;;;;;;22.20;17.23;;;12.00;99.90;;;;;;4995019;28;20434;-66
2024/02/12 04:01:27;;;;;;;24.53;16.93;;;11.90;99.90;;;;;;4992861;28;20426;-66
2024/02/12 04:03:53;;;;;;;20.90;16.13;;;11.90;99.90;;;;;;4976421;28;20430;-66
2024/02/12 04:06:19;;;;;;;22.43;17.60;;;11.90;99.90;;;;;;4994225;28;20749;-67
2024/02/12 04:08:47;;;;;;;19.60;16.47;;;11.90;99.90;;;;;;4992801;28;20180;-66
2024/02/12 04:11:13;;;;;;;20.30;16.37;;;11.90;99.90;;;;;;4992599;28;20477;-66
2024/02/12 04:13:40;;;;;;;21.37;17.33;;;12.00;99.90;;;;;;4994550;28;20454;-66
2024/02/12 04:16:06;;;;;;;20.17;16.23;;;12.00;99.90;;;;;;4993505;28;20454;-66
2024/02/12 04:18:33;;;;;;;21.70;16.60;;;11.90;99.90;;;;;;4994533;28;20551;-67
2024/02/12 04:20:59;;;;;;;22.47;16.67;;;11.90;99.90;;;;;;4993398;28;20439;-66
2024/02/12 04:23:27;;;;;;;23.97;16.33;;;11.90;99.90;;;;;;4994474;28;20501;-66
2024/02/12 04:25:53;;;;;;;22.53;15.60;;;11.90;99.90;;;;;;4994169;28;20415;-66
2024/02/12 04:28:20;;;;;;;20.57;16.00;;;11.90;99.90;;;;;;4992316;28;20430;-66
2024/02/12 04:30:47;;;;;;;21.10;16.10;;;11.90;99.90;;;;;;4967615;28;20254;-66
2024/02/12 04:33:16;;;;;;;21.37;17.10;;;11.90;99.90;;;;;;4993583;28;20454;-66
2024/02/12 04:35:41;;;;;;;22.57;17.00;;;11.90;99.90;;;;;;4976622;28;20411;-66
2024/02/12 04:38:07;;;;;;;23.40;17.03;;;11.90;99.90;;;;;;4993027;28;20408;-66
2024/02/12 04:40:33;;;;;;;23.00;16.90;;;11.90;99.90;;;;;;4994418;28;20180;-65
2024/02/12 04:42:59;;;;;;;25.10;15.57;;;11.90;99.90;;;;;;4992573;28;20425;-66
2024/02/12 04:45:25;;;;;;;23.53;18.17;;;11.80;99.90;;;;;;4993767;28;20180;-66
2024/02/12 04:47:51;;;;;;;21.93;16.60;;;11.70;99.90;;;;;;4993428;28;20211;-66
2024/02/12 04:50:17;;;;;;;24.33;15.60;;;11.70;99.90;;;;;;4992277;28;20438;-66
2024/02/12 04:52:43;;;;;;;26.00;18.33;;;11.70;99.90;;;;;;4974768;28;20451;-66
2024/02/12 04:55:12;;;;;;;20.80;17.50;;;11.70;99.90;;;;;;4991757;28;20519;-66
2024/02/12 04:57:39;;;;;;;24.73;15.23;;;11.60;99.90;;;;;;4993003;28;20257;-66
2024/02/12 05:00:05;;;;;;;22.00;16.17;;;11.60;99.90;;;;;;4975329;28;20566;-66
2024/02/12 05:02:33;;;;;;;20.50;16.63;;;11.50;99.90;;;;;;4993035;28;20434;-66
2024/02/12 05:04:59;;;;;;;19.80;14.53;;;11.60;99.90;;;;;;4993309;28;20517;-66
2024/02/12 05:07:31;;;;;;;19.90;14.23;;;11.60;99.90;;;;;;4972592;28;20514;-66
2024/02/12 05:09:56;;;;;;;16.07;13.50;;;11.60;99.90;;;;;;4973522;28;20407;-66
2024/02/12 05:12:22;;;;;;;18.63;14.03;;;11.50;99.90;;;;;;4985307;28;20463;-66
2024/02/12 05:14:48;;;;;;;15.80;13.03;;;11.60;99.90;;;;;;4992657;28;20183;-66
2024/02/12 05:17:23;;;;;;;15.20;13.00;;;11.60;99.90;;;;;;4992171;28;20223;-66
2024/02/12 05:22:33;;;;;;;16.17;13.27;;;11.60;99.90;;;;;;4991141;28;20418;-66
2024/02/12 05:25:00;;;;;;;16.40;13.03;;;11.60;99.90;;;;;;4973217;28;20423;-66
2024/02/12 05:27:26;;;;;;;19.00;12.43;;;11.60;99.90;;;;;;4973759;28;20415;-66
2024/02/12 05:29:52;;;;;;;17.17;14.10;;;11.60;99.90;;;;;;4973676;28;20758;-66
2024/02/12 05:32:22;;;;;;;16.93;13.53;;;11.60;99.90;;;;;;4972861;28;20461;-66
2024/02/12 05:34:48;;;;;;;15.60;12.30;;;11.60;99.90;;;;;;4977080;28;20584;-66
2024/02/12 05:37:14;;;;;;;17.43;12.27;;;11.60;99.90;;;;;;4991443;28;20490;-66
2024/02/12 05:39:40;;;;;;;15.43;13.37;;;11.60;99.90;;;;;;4993089;28;20184;-66
2024/02/12 05:42:07;;;;;;;17.13;13.67;;;11.60;99.90;;;;;;4991838;28;20430;-66
2024/02/12 05:44:34;;;;;;;15.70;12.17;;;11.60;99.90;;;;;;4992642;28;20944;-66
2024/02/12 05:46:59;;;;;;;21.43;14.07;;;11.60;99.90;;;;;;4974525;28;20434;-66
2024/02/12 05:49:28;;;;;;;16.93;13.50;;;11.60;99.90;;;;;;4992482;28;20908;-66
2024/02/12 05:51:57;;;;;;;15.90;13.43;;;11.60;99.90;;;;;;4992607;28;20183;-66
2024/02/12 05:54:22;;;;;;;15.90;13.30;;;11.50;99.90;;;;;;4989740;28;20844;-66
2024/02/12 05:56:48;;;;;;;16.20;14.10;;;11.60;99.90;;;;;;4992788;28;20425;-66
2024/02/12 05:59:14;;;;;;;20.43;13.80;;;11.60;99.90;;;;;;4991618;28;20180;-66
2024/02/12 06:01:40;;;;;;;16.37;13.23;;;11.60;99.90;;;;;;4992371;28;20175;-66
2024/02/12 06:04:06;;;;;;;16.93;12.70;;;11.60;99.90;;;;;;4991994;28;20173;-66
2024/02/12 06:06:38;;;;;;;16.30;14.33;;;11.60;99.90;;;;;;4992819;28;20403;-66
2024/02/12 06:09:04;;;;;;;16.67;13.53;;;11.60;99.90;;;;;;4992038;28;20611;-66
2024/02/12 06:11:29;;;;;;;16.00;12.50;;;11.60;99.90;;;;;;4992940;28;20403;-66
2024/02/12 06:13:55;;;;;;;18.00;13.37;;;11.70;99.90;;;;;;4992273;28;20811;-66
2024/02/12 06:16:21;;;;;;;17.10;13.20;;;11.70;99.90;;;;;;4991379;28;20265;-65
2024/02/12 06:18:47;;;;;;;20.33;15.00;;;11.70;99.90;;;;;;4991262;28;20308;-65
2024/02/12 06:21:13;;;;;;;17.40;14.87;;;11.60;99.90;;;;;;4992171;28;20179;-64
2024/02/12 06:23:39;;;;;;;24.27;16.50;;;11.60;99.90;;;;;;4992714;28;20190;-64
2024/02/12 06:26:05;;;;;;;23.43;16.77;;;11.50;99.90;;;;;;4991597;28;20441;-64
2024/02/12 06:28:31;;;;;;;22.03;16.40;;;11.50;99.90;;;;;;4992737;28;20423;-64
2024/02/12 06:30:56;;;;;;;23.70;17.83;;;11.40;99.90;;;;;;4975252;28;20761;-64
2024/02/12 06:33:23;;;;;;;25.93;16.97;;;11.40;99.90;;;;;;4995414;28;20247;-65
2024/02/12 06:35:48;;;;;;;22.63;17.07;;;11.40;99.90;;;;;;4993091;28;20427;-68
2024/02/12 06:38:14;;;;;;;25.10;17.57;;;11.40;99.90;;;;;;4990321;28;20185;-65
2024/02/12 06:40:40;;;;;;;26.70;18.27;;;11.40;99.90;;;;;;4995254;28;20182;-64
2024/02/12 06:43:06;;;;;;;24.33;17.40;;;11.40;99.90;;;;;;4995111;28;20184;-64
2024/02/12 06:45:32;;;;;;;26.00;18.20;;;11.40;99.90;;;;;;4995931;28;20497;-65
2024/02/12 06:47:58;;;;;;;26.37;17.30;;;11.40;99.90;;;;;;4996527;28;20179;-68
2024/02/12 06:50:24;;;;;;;23.93;16.90;;;11.40;99.90;;;;;;4994677;28;20433;-68
2024/02/12 06:52:50;;;;;;;22.80;16.30;;;11.40;99.90;;;;;;4994085;28;20211;-70
2024/02/12 06:55:16;;;;;;;28.37;18.57;;;11.40;99.90;;;;;;4995003;28;20468;-68
2024/02/12 06:57:45;;;;;;;21.93;16.83;;;11.40;99.90;;;;;;4994642;28;20491;-69
2024/02/12 07:00:15;;;;;;;26.03;17.63;;;11.40;99.90;;;;;;4976087;28;20578;-64
2024/02/12 07:02:42;;;;;;;24.90;18.07;;;11.40;99.90;;;;;;4984692;28;20521;-64
2024/02/12 07:05:10;;;;;;;25.20;18.07;;;11.40;99.90;;;;;;4995618;28;20408;-65
2024/02/12 07:07:35;;;;;;;28.83;18.00;;;11.40;99.90;;;;;;4996016;28;20422;-64
2024/02/12 07:10:01;;;;;;;25.20;17.53;;;11.40;99.90;;;;;;4995251;28;20427;-64
2024/02/12 07:12:27;;;;;;;23.90;17.40;;;11.40;99.90;;;;;;4993681;28;20204;-64
2024/02/12 07:14:53;;;;;;;23.10;17.83;;;11.30;99.90;;;;;;4994564;28;20178;-64
2024/02/12 07:17:20;;;;;;;25.90;18.77;;;11.30;99.90;;;;;;4970341;28;20314;-69
2024/02/12 07:19:52;;;;;;;29.43;18.87;;;11.40;99.90;;;;;;4976386;28;20431;-68
2024/02/12 07:22:21;;;;;;;24.77;17.30;;;11.30;99.90;;;;;;4973505;28;20420;-67
2024/02/12 07:24:51;;;;;;;26.90;18.90;;;11.30;99.90;;;;;;4974279;28;20533;-65
2024/02/12 07:27:20;;;;;;;23.83;19.50;;;11.40;99.90;;;;;;4975739;28;20414;-65
2024/02/12 07:29:45;;;;;;;24.30;18.40;;;11.30;99.90;;;;;;4975944;28;20842;-64
2024/02/12 07:32:14;;;;;;;28.40;19.00;;;11.30;99.90;;;;;;4975102;28;20500;-64
2024/02/12 07:34:41;;;;;;;25.00;18.10;;;11.40;99.90;;;;;;4976810;28;20184;-64
2024/02/12 07:37:08;;;;;;;23.63;18.90;;;11.40;99.90;;;;;;4974717;28;20929;-64
2024/02/12 07:39:34;;;;;;;27.10;19.20;;;11.40;99.90;;;;;;4975718;28;20756;-64
2024/02/12 07:42:00;;;;;;;28.10;19.00;;;11.40;99.90;;;;;;4975613;28;20492;-64
2024/02/12 07:44:26;;;;;;;24.80;18.27;;;11.40;99.90;;;;;;4973037;28;20494;-64
2024/02/12 07:46:52;;;;;;;24.53;17.20;;;11.40;99.90;;;;;;4975393;28;20187;-64
2024/02/12 07:49:19;;;;;;;26.40;17.80;;;11.50;99.90;;;;;;4974124;28;20439;-64
2024/02/12 07:51:45;;;;;;;25.97;18.63;;;11.50;99.90;;;;;;4975796;28;20463;-64
2024/02/12 07:54:11;;;;;;;21.80;16.37;;;11.50;99.90;;;;;;4974689;28;20518;-64
2024/02/12 07:56:37;;;;;;;27.00;17.20;;;11.50;99.90;;;;;;4964747;28;20510;-65
2024/02/12 07:59:03;;;;;;;26.93;17.80;;;11.50;99.90;;;;;;4975210;28;20925;-64
2024/02/12 08:01:29;;;;;;;26.23;17.37;;;11.50;99.90;;;;;;4973111;28;20645;-64
2024/02/12 08:03:55;;;;;;;25.20;18.77;;;11.60;99.90;;;;;;4974499;28;20434;-64
2024/02/12 08:06:21;;;;;;;28.60;18.23;;;11.60;99.90;;;;;;4972938;28;20230;-64
2024/02/12 08:08:47;;;;;;;29.07;18.67;;;11.60;99.90;;;;;;4974541;28;20179;-64
2024/02/12 08:11:15;;;;;;;25.97;17.93;;;11.60;99.90;;;;;;4974309;28;20419;-64
2024/02/12 08:13:42;;;;;;;24.70;18.13;;;11.70;99.90;;;;;;4975033;28;20453;-64
2024/02/12 08:16:08;;;;;;;28.73;17.90;;;11.70;99.90;;;;;;4974679;28;20427;-64
2024/02/12 08:18:36;;;;;;;25.70;18.57;;;11.70;99.90;;;;;;4991567;28;20471;-65
2024/02/12 08:21:02;;;;;;;27.07;18.70;;;11.70;99.90;;;;;;4994719;28;20441;-65
2024/02/12 08:23:28;;;;;;;27.07;18.60;;;11.70;99.90;;;;;;4993977;28;20531;-65
2024/02/12 08:25:53;;;;;;;26.70;18.47;;;11.80;99.90;;;;;;4994540;28;20443;-64
2024/02/12 08:28:24;;;;;;;26.30;17.90;;;11.80;99.90;;;;;;4993672;28;20176;-65
2024/02/12 08:30:50;;;;;;;23.90;18.03;;;11.80;99.90;;;;;;4994631;28;20160;-65
2024/02/12 08:33:16;;;;;;;26.80;19.90;;;11.80;99.90;;;;;;4993813;28;20512;-66
2024/02/12 08:35:42;;;;;;;25.20;16.97;;;11.80;99.90;;;;;;4994519;28;20416;-64
2024/02/12 08:38:09;;;;;;;26.90;17.67;;;11.80;99.90;;;;;;4994257;28;20183;-65
2024/02/12 08:40:36;;;;;;;24.03;17.60;;;11.80;99.90;;;;;;4994360;28;20179;-64
2024/02/12 08:43:05;;;;;;;24.30;16.07;;;11.80;99.90;;;;;;4994053;28;20423;-64
2024/02/12 08:45:31;;;;;;;22.30;17.20;;;11.80;99.90;;;;;;4975439;28;20465;-65
2024/02/12 08:47:57;;;;;;;22.57;16.83;;;11.80;99.90;;;;;;4977034;28;20455;-65
2024/02/12 08:50:23;;;;;;;26.07;17.87;;;11.80;99.90;;;;;;4993571;28;20511;-64
2024/02/12 08:52:49;;;;;;;24.80;17.17;;;11.80;99.90;;;;;;4993964;28;20558;-63
2024/02/12 08:55:16;;;;;;;23.87;16.20;;;11.80;99.90;;;;;;4993077;28;20420;-64
2024/02/12 08:57:42;;;;;;;23.80;17.47;;;11.70;99.90;;;;;;4994283;28;20223;-64
2024/02/12 09:00:10;;;;;;;23.23;17.50;;;11.80;99.90;;;;;;4994017;28;20421;-63
2024/02/12 09:02:36;;;;;;;19.03;15.00;;;11.80;99.90;;;;;;4977038;28;20516;-66
2024/02/12 09:05:03;;;;;;;21.97;17.07;;;11.90;99.90;;;;;;4976589;28;20507;-68
2024/02/12 09:07:29;;;;;;;24.53;17.17;;;12.20;99.90;;;;;;4991869;28;20954;-67
2024/02/12 09:09:55;;;;;;;23.20;16.30;;;12.10;99.90;;;;;;4993826;28;20512;-67
2024/02/12 09:12:21;;;;;;;20.57;16.27;;;12.60;99.90;;;;;;4975847;28;20210;-67
2024/02/12 09:14:47;;;;;;;20.17;15.83;;;13.20;99.90;;;;;;4993803;28;20462;-67
2024/02/12 09:17:15;;;;;;;21.40;14.67;;;13.70;99.90;;;;;;4992607;28;20457;-67
2024/02/12 09:19:41;;;;;;;22.60;17.57;;;13.90;99.90;;;;;;4993356;28;20216;-68
2024/02/12 09:22:09;;;;;;;16.83;14.97;;;14.20;99.90;;;;;;4992203;28;20438;-68
2024/02/12 09:24:40;;;;;;;23.13;16.57;;;14.30;99.90;;;;;;4988184;28;20549;-68
2024/02/12 09:27:07;;;;;;;35.27;22.97;;;14.50;99.90;;;;;;4986420;28;20409;-68
2024/02/12 09:29:34;;;;;;;24.83;19.50;;;14.50;99.90;;;;;;4991123;28;20515;-67
2024/02/12 09:32:01;;;;;;;53.87;35.90;;;14.60;99.90;;;;;;4966772;28;20503;-67
2024/02/12 09:34:27;;;;;;;22.23;17.63;;;14.50;99.90;;;;;;4989424;28;20423;-69
2024/02/12 09:36:53;;;;;;;24.57;17.87;;;14.50;99.90;;;;;;4989947;28;20427;-68
2024/02/12 09:39:19;;;;;;;27.17;20.90;;;14.60;99.90;;;;;;4985340;28;20430;-68
2024/02/12 09:41:47;;;;;;;24.97;18.37;;;14.50;99.90;;;;;;4984228;28;20481;-68
2024/02/12 09:44:17;;;;;;;22.03;17.43;;;14.50;99.90;;;;;;4986885;28;20185;-68
2024/02/12 09:46:49;;;;;;;23.13;18.50;;;14.40;99.90;;;;;;4986783;28;20427;-66
2024/02/12 09:49:18;;;;;;;24.20;18.20;;;14.30;99.90;;;;;;4987831;28;20835;-66
2024/02/12 09:51:47;;;;;;;25.57;18.70;;;14.30;99.90;;;;;;4986347;28;20428;-67
2024/02/12 09:54:15;;;;;;;26.57;19.83;;;14.50;99.90;;;;;;4983342;28;20441;-67
2024/02/12 09:56:43;;;;;;;21.73;17.00;;;14.60;99.90;;;;;;4987738;28;20421;-66
2024/02/12 09:59:09;;;;;;;27.23;18.80;;;14.70;99.90;;;;;;4982007;28;20458;-66
2024/02/12 10:01:36;;;;;;;24.03;18.07;;;14.80;99.90;;;;;;4974752;28;20429;-66
2024/02/12 10:04:02;;;;;;;22.33;16.57;;;14.90;99.90;;;;;;4992660;28;20512;-66
2024/02/12 10:06:28;;;;;;;26.90;16.50;;;15.10;99.90;;;;;;4993181;28;20422;-66
2024/02/12 10:09:07;;;;;;;20.57;15.97;;;15.10;99.90;;;;;;4994198;28;20890;-66
2024/02/12 10:11:33;;;;;;;23.00;15.10;;;15.20;99.90;;;;;;4996211;28;20675;-66
2024/02/12 10:14:04;;;;;;;20.30;17.07;;;15.20;99.90;;;;;;4995641;28;20790;-65
2024/02/12 10:16:31;;;;;;;19.23;16.37;;;15.30;99.90;;;;;;4995640;28;20830;-66
2024/02/12 10:19:00;;;;;;;19.77;15.87;;;15.40;99.90;;;;;;4987215;28;20496;-65
2024/02/12 10:21:26;;;;;;;21.20;16.17;;;15.40;99.90;;;;;;4969844;28;20429;-66
2024/02/12 10:23:52;;;;;;;17.23;15.33;;;15.50;99.90;;;;;;4996086;28;20827;-65
2024/02/12 10:26:25;;;;;;;18.60;15.07;;;15.50;99.90;;;;;;4995925;28;20185;-65
2024/02/12 10:28:58;;;;;;;21.03;16.20;;;15.60;99.90;;;;;;4985646;28;20481;-66
2024/02/12 10:31:24;;;;;;;18.50;14.40;;;15.70;99.90;;;;;;4962253;28;20429;-66
2024/02/12 10:33:53;;;;;;;17.83;14.90;;;15.80;99.90;;;;;;4987914;28;20464;-66
2024/02/12 10:36:22;;;;;;;19.40;15.40;;;15.80;99.90;;;;;;4985656;28;20514;-66
2024/02/12 10:38:48;;;;;;;17.27;14.43;;;15.90;99.90;;;;;;4993021;28;20830;-66
2024/02/12 10:41:33;;;;;;;17.50;13.77;;;15.90;99.90;;;;;;4993586;28;20442;-65
2024/02/12 10:43:59;;;;;;;18.10;13.03;;;16.00;99.90;;;;;;4996127;28;20810;-69
2024/02/12 10:46:27;;;;;;;12.97;11.67;;;16.00;99.90;;;;;;4994679;28;20505;-68
2024/02/12 10:48:54;;;;;;;188.70;127.33;;;15.90;99.90;;;;;;4984889;28;20415;-68
2024/02/12 10:51:23;;;;;;;57.60;44.50;;;15.70;99.90;;;;;;4985360;28;20430;-68
2024/02/12 10:53:50;;;;;;;13.43;12.03;;;15.70;99.90;;;;;;4983937;28;21011;-68
2024/02/12 10:56:16;;;;;;;36.30;27.10;;;15.40;99.90;;;;;;4986665;28;20432;-68
2024/02/12 10:58:43;;;;;;;23.20;18.07;;;15.20;99.90;;;;;;4967908;28;20918;-68
2024/02/12 11:01:14;;;;;;;31.90;24.63;;;15.40;99.90;;;;;;4988840;28;20520;-68
2024/02/12 11:03:53;;;;;;;21.27;16.57;;;15.40;99.90;;;;;;4994097;28;20429;-68
2024/02/12 11:06:19;;;;;;;18.97;15.37;;;15.40;99.90;;;;;;4975547;28;20414;-68
2024/02/12 11:08:49;;;;;;;14.03;12.57;;;15.30;99.90;;;;;;4995113;28;20414;-68
2024/02/12 11:11:30;;;;;;;14.90;13.33;;;15.20;99.90;;;;;;4992560;28;20463;-69
2024/02/12 11:14:05;;;;;;;18.47;15.90;;;14.90;99.90;;;;;;4992543;28;20449;-68
2024/02/12 11:16:37;;;;;;;15.00;13.07;;;14.80;99.90;;;;;;4993766;28;20408;-68
2024/02/12 11:19:03;;;;;;;16.43;13.57;;;14.50;99.90;;;;;;4985383;28;20785;-68
2024/02/12 11:21:30;;;;;;;14.70;12.77;;;14.60;99.90;;;;;;4983704;28;20540;-68
2024/02/12 11:24:06;;;;;;;14.20;12.63;;;14.70;99.90;;;;;;4975409;28;20174;-68
2024/02/12 11:26:43;;;;;;;15.90;14.20;;;14.60;99.90;;;;;;4968706;28;20531;-68
2024/02/12 11:29:11;;;;;;;21.33;17.00;;;14.40;99.90;;;;;;4986168;28;20476;-69
2024/02/12 11:31:41;;;;;;;15.57;12.93;;;14.50;99.90;;;;;;4988268;28;20424;-69
2024/02/12 11:34:10;;;;;;;15.17;13.70;;;14.60;99.90;;;;;;4994919;28;20484;-70
2024/02/12 11:36:36;;;;;;;16.50;12.83;;;14.50;99.90;;;;;;4991599;28;20405;-69
2024/02/12 11:39:03;;;;;;;15.00;11.90;;;14.30;99.90;;;;;;4995054;28;20421;-69
2024/02/12 11:41:32;;;;;;;17.07;11.80;;;14.10;99.90;;;;;;4993847;28;20206;-69
2024/02/12 11:44:00;;;;;;;15.73;12.97;;;14.00;99.90;;;;;;4994775;28;20433;-70
2024/02/12 11:46:26;;;;;;;13.83;11.70;;;14.10;99.90;;;;;;4994110;28;20438;-69
2024/02/12 11:49:06;;;;;;;190.77;134.23;;;13.90;99.90;;;;;;4992041;28;20423;-69
2024/02/12 11:51:35;;;;;;;41.73;31.17;;;14.10;99.90;;;;;;4993966;28;20433;-70
2024/02/12 11:54:02;;;;;;;22.77;16.83;;;14.10;99.90;;;;;;4987397;28;20466;-69
2024/02/12 11:56:28;;;;;;;12.60;10.23;;;14.10;99.90;;;;;;4969379;28;21003;-68
2024/02/12 11:58:54;;;;;;;11.57;10.37;;;14.10;99.90;;;;;;4993638;28;20522;-67
2024/02/12 12:01:34;;;;;;;15.00;10.27;;;14.10;99.90;;;;;;4992957;28;20513;-67
2024/02/12 12:04:01;;;;;;;14.93;10.07;;;14.00;99.90;;;;;;4994478;28;20411;-68
2024/02/12 12:06:36;;;;;;;13.97;10.77;;;13.80;99.90;;;;;;4992260;28;20821;-67
2024/02/12 12:09:11;;;;;;;13.17;10.30;;;13.70;99.90;;;;;;4991197;28;20452;-68
2024/02/12 12:11:41;;;;;;;14.23;9.80;;;13.60;99.90;;;;;;4993231;28;20789;-67
2024/02/12 12:14:07;;;;;;;8.07;7.20;;;13.50;99.90;;;;;;4993577;28;20453;-68
2024/02/12 12:16:35;;;;;;;7.30;6.60;;;13.10;99.90;;;;;;4992697;28;20429;-68
2024/02/12 12:19:09;;;;;;;8.30;7.50;;;12.90;99.90;;;;;;4994394;28;20190;-67
2024/02/12 12:21:35;;;;;;;7.50;6.80;;;12.80;99.90;;;;;;4976263;28;20436;-68
2024/02/12 12:24:01;;;;;;;8.07;7.27;;;12.70;99.90;;;;;;4993880;28;20438;-68
2024/02/12 12:26:27;;;;;;;611.13;465.23;;;12.60;99.90;;;;;;4993398;28;20427;-68
2024/02/12 12:28:53;;;;;;;16.00;12.90;;;12.50;99.90;;;;;;4991871;28;20442;-67
2024/02/12 12:31:20;;;;;;;11.80;10.00;;;12.30;99.90;;;;;;4993474;28;20439;-67
2024/02/12 12:33:46;;;;;;;11.20;9.60;;;12.20;99.90;;;;;;4991758;28;20561;-67
2024/02/12 12:36:12;;;;;;;10.27;9.27;;;12.00;99.90;;;;;;4991876;28;20927;-67
2024/02/12 12:38:39;;;;;;;15.27;9.50;;;12.00;99.90;;;;;;4993710;28;20205;-67
2024/02/12 12:41:08;;;;;;;11.70;9.87;;;12.00;99.90;;;;;;4993630;28;20429;-67
2024/02/12 12:43:34;;;;;;;11.70;10.03;;;12.00;99.90;;;;;;4992941;28;20833;-69
2024/02/12 12:46:00;;;;;;;13.20;9.33;;;12.00;99.90;;;;;;4993699;28;20434;-67